Time;durP1;ratioP1;P1;durP2;ratioP2;P2;SDS_P1;SDS_P2;PMS_P1;PMS_P2;Temp;Humidity;BMP_temperature;BMP_pressure;BME280_temperature;BME280_humidity;BME280_pressure;Samples;Min_cycle;Max_cycle;Signal;HPM_P1;HPM_P2
2023/07/15 00:01:08;;;;;;;9.23;4.10;;;;;;;;;;5085440;28;20026;-61
2023/07/15 00:03:34;;;;;;;7.93;4.55;;;;;;;;;;5078853;28;20026;-61
2023/07/15 00:06:00;;;;;;;7.68;4.30;;;;;;;;;;5084544;28;20012;-60
2023/07/15 00:08:25;;;;;;;7.30;3.85;;;;;;;;;;5079798;28;20500;-61
2023/07/15 00:10:50;;;;;;;7.22;4.20;;;;;;;;;;5092515;28;20354;-60
2023/07/15 00:13:17;;;;;;;7.13;3.93;;;;;;;;;;5078034;28;20407;-60
2023/07/15 00:15:50;;;;;;;7.28;3.97;;;;;;;;;;5081788;28;20254;-61
2023/07/15 00:18:15;;;;;;;7.60;4.43;;;;;;;;;;5080353;28;20060;-62
2023/07/15 00:20:41;;;;;;;6.93;3.92;;;;;;;;;;5087437;28;20004;-61
2023/07/15 00:23:17;;;;;;;8.45;4.07;;;;;;;;;;5088935;28;20019;-61
2023/07/15 00:25:44;;;;;;;7.15;4.32;;;;;;;;;;5088571;28;20734;-60
2023/07/15 00:28:11;;;;;;;8.73;4.40;;;;;;;;;;5094396;28;20028;-61
2023/07/15 00:30:37;;;;;;;8.35;4.20;;;;;;;;;;5090294;28;20653;-61
2023/07/15 00:33:02;;;;;;;8.45;3.90;;;;;;;;;;5095357;28;20023;-61
2023/07/15 00:35:31;;;;;;;7.40;3.83;;;;;;;;;;5086634;28;20025;-62
2023/07/15 00:37:56;;;;;;;6.47;3.90;;;;;;;;;;5092607;28;20102;-61
2023/07/15 00:40:22;;;;;;;7.40;4.18;;;;;;;;;;5085037;28;20069;-60
2023/07/15 00:42:55;;;;;;;9.32;4.20;;;;;;;;;;5097826;28;20101;-61
2023/07/15 00:45:21;;;;;;;8.82;4.00;;;;;;;;;;5088006;28;20015;-61
2023/07/15 00:47:57;;;;;;;7.87;3.93;;;;;;;;;;5089776;28;20035;-61
2023/07/15 00:50:22;;;;;;;7.97;4.20;;;;;;;;;;5094736;28;20253;-61
2023/07/15 00:52:50;;;;;;;8.43;3.90;;;;;;;;;;5085523;28;21056;-61
2023/07/15 00:55:18;;;;;;;7.53;3.72;;;;;;;;;;5087087;28;20580;-61
2023/07/15 00:57:43;;;;;;;9.45;4.35;;;;;;;;;;5085423;28;20024;-60
2023/07/15 01:00:10;;;;;;;8.95;3.88;;;;;;;;;;5090305;28;20043;-61
2023/07/15 01:02:37;;;;;;;7.55;4.13;;;;;;;;;;5096777;28;20426;-60
2023/07/15 01:05:02;;;;;;;8.20;3.65;;;;;;;;;;5086804;28;20020;-60
2023/07/15 01:07:28;;;;;;;7.97;4.20;;;;;;;;;;5093197;28;20663;-62
2023/07/15 01:09:54;;;;;;;6.05;3.70;;;;;;;;;;5085271;28;20725;-61
2023/07/15 01:12:19;;;;;;;8.50;3.80;;;;;;;;;;5086174;28;20019;-60
2023/07/15 01:14:49;;;;;;;9.00;3.92;;;;;;;;;;5087763;28;20020;-60
2023/07/15 01:17:19;;;;;;;6.82;4.72;;;;;;;;;;5086502;28;20052;-60
2023/07/15 01:19:44;;;;;;;7.15;3.83;;;;;;;;;;5086782;28;20020;-61
2023/07/15 01:22:10;;;;;;;6.10;3.70;;;;;;;;;;5085392;28;20117;-62
2023/07/15 01:24:39;;;;;;;7.85;3.90;;;;;;;;;;5085542;28;20016;-61
2023/07/15 01:27:06;;;;;;;7.97;4.07;;;;;;;;;;5089246;28;20528;-61
2023/07/15 01:29:34;;;;;;;7.05;4.05;;;;;;;;;;5084690;28;20020;-60
2023/07/15 01:32:01;;;;;;;7.30;3.85;;;;;;;;;;5087809;28;20023;-61
2023/07/15 01:34:29;;;;;;;9.30;3.75;;;;;;;;;;5081820;28;20020;-61
2023/07/15 01:36:56;;;;;;;6.05;3.53;;;;;;;;;;5088501;28;20016;-61
2023/07/15 01:39:23;;;;;;;8.57;4.03;;;;;;;;;;5082152;28;20448;-60
2023/07/15 01:41:49;;;;;;;8.95;4.13;;;;;;;;;;5087670;28;20028;-60
2023/07/15 01:44:15;;;;;;;8.30;3.80;;;;;;;;;;5091265;28;20019;-60
2023/07/15 01:46:40;;;;;;;7.97;4.32;;;;;;;;;;5088225;28;20063;-61
2023/07/15 01:49:07;;;;;;;7.90;3.80;;;;;;;;;;5085584;28;20012;-62
2023/07/15 01:51:33;;;;;;;8.95;4.20;;;;;;;;;;5087862;28;20168;-62
2023/07/15 01:53:58;;;;;;;6.50;3.78;;;;;;;;;;5085339;28;20015;-62
2023/07/15 01:56:24;;;;;;;7.43;3.67;;;;;;;;;;5094700;28;20031;-60
2023/07/15 01:58:49;;;;;;;7.03;3.53;;;;;;;;;;5088678;28;20027;-61
2023/07/15 02:01:14;;;;;;;6.17;3.67;;;;;;;;;;5086499;28;20023;-60
2023/07/15 02:03:40;;;;;;;9.27;4.40;;;;;;;;;;5083445;28;20250;-61
2023/07/15 02:06:05;;;;;;;6.18;3.72;;;;;;;;;;5087977;28;20662;-60
2023/07/15 02:08:32;;;;;;;8.80;4.35;;;;;;;;;;5092884;28;20474;-60
2023/07/15 02:11:00;;;;;;;9.73;4.40;;;;;;;;;;5082743;28;20035;-60
2023/07/15 02:13:25;;;;;;;8.00;4.00;;;;;;;;;;5088852;28;20020;-61
2023/07/15 02:15:51;;;;;;;8.23;4.00;;;;;;;;;;5079751;28;20212;-61
2023/07/15 02:18:16;;;;;;;9.45;4.18;;;;;;;;;;5040486;28;1401063;-62
2023/07/15 02:20:41;;;;;;;7.38;4.63;;;;;;;;;;5085273;28;20050;-61
2023/07/15 02:23:08;;;;;;;6.38;4.05;;;;;;;;;;5091285;28;20015;-58
2023/07/15 02:25:33;;;;;;;7.60;4.55;;;;;;;;;;5089462;27;20084;-61
2023/07/15 02:27:59;;;;;;;8.68;4.28;;;;;;;;;;5090048;28;20572;-61
2023/07/15 02:30:27;;;;;;;8.50;4.13;;;;;;;;;;5092502;28;20437;-61
2023/07/15 02:32:54;;;;;;;7.22;3.92;;;;;;;;;;5085212;28;20727;-61
2023/07/15 02:35:20;;;;;;;9.85;4.47;;;;;;;;;;5092018;28;20019;-60
2023/07/15 02:37:49;;;;;;;6.90;4.32;;;;;;;;;;5088639;28;20016;-61
2023/07/15 02:40:14;;;;;;;8.80;4.72;;;;;;;;;;5095117;27;20015;-61
2023/07/15 02:42:39;;;;;;;7.95;4.25;;;;;;;;;;5092198;28;20068;-61
2023/07/15 02:45:06;;;;;;;8.40;4.20;;;;;;;;;;5082912;28;20020;-61
2023/07/15 02:47:33;;;;;;;8.05;3.90;;;;;;;;;;5089046;28;20019;-61
2023/07/15 02:50:07;;;;;;;9.10;4.18;;;;;;;;;;5080517;28;20110;-61
2023/07/15 02:52:36;;;;;;;6.82;3.83;;;;;;;;;;5091480;28;20611;-63
2023/07/15 02:55:05;;;;;;;7.35;4.05;;;;;;;;;;5083445;28;20024;-62
2023/07/15 02:57:33;;;;;;;9.55;4.00;;;;;;;;;;5089779;28;20073;-62
2023/07/15 02:59:58;;;;;;;7.10;4.18;;;;;;;;;;5089514;28;20054;-61
2023/07/15 03:02:24;;;;;;;7.35;4.20;;;;;;;;;;5086726;28;20127;-61
2023/07/15 03:04:52;;;;;;;9.10;4.20;;;;;;;;;;5089711;28;20019;-61
2023/07/15 03:07:18;;;;;;;6.47;3.92;;;;;;;;;;5084650;28;20012;-61
2023/07/15 03:09:44;;;;;;;8.52;3.90;;;;;;;;;;5094240;28;20027;-62
2023/07/15 03:12:10;;;;;;;8.65;4.25;;;;;;;;;;5087198;28;20011;-60
2023/07/15 03:14:35;;;;;;;12.68;4.75;;;;;;;;;;5086151;28;20083;-59
2023/07/15 03:17:01;;;;;;;12.68;4.30;;;;;;;;;;5089348;28;20043;-61
2023/07/15 03:19:30;;;;;;;8.10;4.22;;;;;;;;;;5077512;28;20027;-59
2023/07/15 03:21:55;;;;;;;8.85;4.32;;;;;;;;;;5084393;28;20022;-61
2023/07/15 03:24:25;;;;;;;7.78;4.18;;;;;;;;;;5083299;28;20031;-61
2023/07/15 03:26:50;;;;;;;6.65;4.15;;;;;;;;;;5089344;28;20114;-62
2023/07/15 03:29:15;;;;;;;8.55;4.03;;;;;;;;;;5082036;28;20030;-61
2023/07/15 03:31:41;;;;;;;7.30;4.40;;;;;;;;;;5090882;28;20028;-61
2023/07/15 03:34:06;;;;;;;7.77;4.13;;;;;;;;;;5086456;28;20242;-60
2023/07/15 03:36:32;;;;;;;9.13;3.80;;;;;;;;;;5089438;28;20929;-60
2023/07/15 03:38:57;;;;;;;8.25;4.28;;;;;;;;;;5084485;28;20047;-61
2023/07/15 03:41:25;;;;;;;8.33;4.40;;;;;;;;;;5087540;28;20115;-60
2023/07/15 03:43:50;;;;;;;7.18;4.43;;;;;;;;;;5087625;28;20248;-61
2023/07/15 03:46:15;;;;;;;7.53;4.03;;;;;;;;;;5087201;28;20020;-61
2023/07/15 03:48:43;;;;;;;9.00;4.32;;;;;;;;;;5079173;28;20035;-61
2023/07/15 03:51:09;;;;;;;6.25;4.10;;;;;;;;;;5086837;28;20499;-61
2023/07/15 03:53:34;;;;;;;9.60;4.07;;;;;;;;;;5090406;28;20049;-60
2023/07/15 03:56:00;;;;;;;6.93;4.05;;;;;;;;;;5066587;28;20053;-61
2023/07/15 03:58:25;;;;;;;6.07;4.07;;;;;;;;;;5084641;28;20178;-61
2023/07/15 04:00:50;;;;;;;11.50;4.57;;;;;;;;;;5085711;28;20012;-61
2023/07/15 04:03:15;;;;;;;7.45;4.05;;;;;;;;;;5082055;28;21180;-62
2023/07/15 04:05:43;;;;;;;9.53;4.47;;;;;;;;;;5091158;28;20311;-60
2023/07/15 04:08:08;;;;;;;9.02;4.35;;;;;;;;;;5082310;28;20553;-61
2023/07/15 04:10:33;;;;;;;7.43;4.00;;;;;;;;;;5092809;28;20026;-61
2023/07/15 04:13:01;;;;;;;7.43;3.87;;;;;;;;;;5084982;28;20577;-59
2023/07/15 04:15:29;;;;;;;6.95;3.90;;;;;;;;;;5090302;28;20241;-60
2023/07/15 04:17:54;;;;;;;8.93;4.28;;;;;;;;;;5080832;28;20076;-60
2023/07/15 04:20:19;;;;;;;9.47;4.40;;;;;;;;;;5085822;28;20496;-61
2023/07/15 04:22:44;;;;;;;7.10;4.10;;;;;;;;;;5081926;28;20012;-60
2023/07/15 04:25:14;;;;;;;7.73;4.73;;;;;;;;;;5081590;28;20015;-60
2023/07/15 04:27:40;;;;;;;10.02;4.20;;;;;;;;;;5091570;28;20129;-59
2023/07/15 04:30:05;;;;;;;9.15;4.32;;;;;;;;;;5088305;28;20061;-60
2023/07/15 04:32:31;;;;;;;10.93;4.05;;;;;;;;;;5091329;28;20073;-61
2023/07/15 04:34:56;;;;;;;6.63;4.30;;;;;;;;;;5080525;28;20375;-60
2023/07/15 04:37:22;;;;;;;9.53;4.50;;;;;;;;;;5091307;28;20094;-62
2023/07/15 04:39:48;;;;;;;9.57;4.03;;;;;;;;;;5078174;28;20369;-60
2023/07/15 04:42:15;;;;;;;7.20;4.30;;;;;;;;;;5086446;28;20041;-61
2023/07/15 04:44:40;;;;;;;7.13;3.80;;;;;;;;;;5083515;28;20122;-62
2023/07/15 04:47:06;;;;;;;9.23;4.63;;;;;;;;;;5089824;28;20675;-61
2023/07/15 04:49:32;;;;;;;7.28;4.18;;;;;;;;;;5087125;28;20285;-59
2023/07/15 04:51:57;;;;;;;7.97;4.40;;;;;;;;;;5082114;28;20027;-60
2023/07/15 04:54:22;;;;;;;9.07;4.07;;;;;;;;;;5091627;28;20019;-59
2023/07/15 04:56:48;;;;;;;7.57;4.15;;;;;;;;;;5085979;28;20116;-60
2023/07/15 04:59:13;;;;;;;9.90;4.30;;;;;;;;;;5093668;28;20535;-61
2023/07/15 05:01:38;;;;;;;6.83;4.20;;;;;;;;;;5085830;28;20521;-61
2023/07/15 05:04:03;;;;;;;6.70;4.07;;;;;;;;;;5091353;28;20624;-61
2023/07/15 05:06:29;;;;;;;6.85;4.15;;;;;;;;;;5089125;28;20386;-61
2023/07/15 05:08:54;;;;;;;9.10;4.68;;;;;;;;;;5084193;28;20023;-60
2023/07/15 05:11:20;;;;;;;6.63;4.05;;;;;;;;;;5098489;28;20024;-61
2023/07/15 05:13:46;;;;;;;7.60;4.05;;;;;;;;;;5087419;28;20027;-59
2023/07/15 05:16:12;;;;;;;8.05;4.80;;;;;;;;;;5094618;28;20019;-61
2023/07/15 05:18:37;;;;;;;6.63;4.05;;;;;;;;;;5092135;28;20392;-60
2023/07/15 05:21:02;;;;;;;8.40;4.20;;;;;;;;;;5097115;28;20426;-61
2023/07/15 05:23:31;;;;;;;9.13;4.20;;;;;;;;;;5087098;28;20283;-61
2023/07/15 05:25:56;;;;;;;8.00;4.10;;;;;;;;;;5083836;28;20016;-61
2023/07/15 05:28:21;;;;;;;7.53;4.35;;;;;;;;;;5083414;28;20031;-61
2023/07/15 05:30:46;;;;;;;6.67;4.10;;;;;;;;;;5090817;28;20008;-58
2023/07/15 05:33:14;;;;;;;7.83;4.00;;;;;;;;;;5089789;28;20249;-60
2023/07/15 05:35:39;;;;;;;6.53;3.80;;;;;;;;;;5090733;28;20364;-59
2023/07/15 05:38:05;;;;;;;8.53;4.10;;;;;;;;;;5091226;28;20026;-61
2023/07/15 05:40:32;;;;;;;8.20;3.83;;;;;;;;;;5073952;28;20641;-60
2023/07/15 05:42:57;;;;;;;6.05;4.13;;;;;;;;;;5087531;28;20016;-60
2023/07/15 05:45:23;;;;;;;10.17;4.07;;;;;;;;;;5083955;28;20047;-62
2023/07/15 05:47:48;;;;;;;5.80;3.78;;;;;;;;;;5093493;28;20036;-59
2023/07/15 05:50:16;;;;;;;6.30;4.07;;;;;;;;;;5090069;28;20023;-61
2023/07/15 05:52:41;;;;;;;6.85;3.90;;;;;;;;;;5089313;28;20246;-62
2023/07/15 05:55:06;;;;;;;7.07;4.07;;;;;;;;;;5089902;28;20026;-60
2023/07/15 05:57:32;;;;;;;7.80;4.45;;;;;;;;;;5086907;28;20027;-61
2023/07/15 05:59:58;;;;;;;7.85;3.90;;;;;;;;;;5090916;28;20026;-61
2023/07/15 06:02:25;;;;;;;8.55;4.20;;;;;;;;;;5088157;28;20481;-62
2023/07/15 06:04:53;;;;;;;7.75;3.80;;;;;;;;;;5092562;28;20465;-63
2023/07/15 06:07:20;;;;;;;8.13;3.90;;;;;;;;;;5082229;28;20028;-62
2023/07/15 06:09:49;;;;;;;7.10;3.90;;;;;;;;;;5092222;28;20047;-61
2023/07/15 06:12:16;;;;;;;10.77;4.53;;;;;;;;;;5092141;28;20677;-60
2023/07/15 06:14:42;;;;;;;8.45;4.20;;;;;;;;;;5093139;28;20080;-61
2023/07/15 06:17:07;;;;;;;6.97;4.00;;;;;;;;;;5090486;28;20055;-61
2023/07/15 06:19:32;;;;;;;8.90;4.50;;;;;;;;;;5085908;28;20027;-60
2023/07/15 06:22:00;;;;;;;10.37;4.20;;;;;;;;;;5096458;28;20316;-61
2023/07/15 06:24:27;;;;;;;7.63;4.22;;;;;;;;;;5086326;27;20024;-60
2023/07/15 06:26:55;;;;;;;9.02;4.07;;;;;;;;;;5095173;28;20081;-61
2023/07/15 06:29:20;;;;;;;7.60;4.25;;;;;;;;;;5084426;28;20046;-60
2023/07/15 06:31:45;;;;;;;8.48;4.07;;;;;;;;;;5088064;28;20024;-61
2023/07/15 06:34:13;;;;;;;11.98;4.63;;;;;;;;;;5095160;28;20023;-60
2023/07/15 06:36:38;;;;;;;6.38;3.75;;;;;;;;;;5083379;28;20055;-61
2023/07/15 06:39:03;;;;;;;9.18;4.20;;;;;;;;;;5090439;28;20111;-61
2023/07/15 06:41:28;;;;;;;6.53;3.92;;;;;;;;;;5083863;28;20729;-61
2023/07/15 06:43:54;;;;;;;7.30;4.37;;;;;;;;;;5083774;28;20028;-60
2023/07/15 06:46:19;;;;;;;6.50;3.73;;;;;;;;;;5081843;28;20631;-59
2023/07/15 06:48:45;;;;;;;6.38;3.90;;;;;;;;;;5084861;28;20386;-61
2023/07/15 06:51:14;;;;;;;8.43;3.58;;;;;;;;;;5092927;28;20073;-61
2023/07/15 06:53:39;;;;;;;6.30;3.80;;;;;;;;;;5090494;28;20649;-59
2023/07/15 06:56:04;;;;;;;8.50;4.57;;;;;;;;;;5091546;28;20020;-60
2023/07/15 06:58:30;;;;;;;6.63;3.80;;;;;;;;;;5082534;28;20698;-60
2023/07/15 07:00:55;;;;;;;6.43;3.77;;;;;;;;;;5089620;28;20545;-61
2023/07/15 07:03:20;;;;;;;10.00;4.00;;;;;;;;;;5084596;28;20046;-60
2023/07/15 07:05:48;;;;;;;7.37;3.90;;;;;;;;;;5085737;28;20254;-61
2023/07/15 07:08:13;;;;;;;6.50;3.80;;;;;;;;;;5094358;28;20277;-61
2023/07/15 07:10:40;;;;;;;7.17;4.30;;;;;;;;;;5086916;28;20024;-62
2023/07/15 07:13:06;;;;;;;8.45;3.78;;;;;;;;;;5097733;28;20107;-61
2023/07/15 07:15:33;;;;;;;7.77;3.97;;;;;;;;;;5080980;28;20656;-61
2023/07/15 07:17:59;;;;;;;7.72;3.85;;;;;;;;;;5092313;28;20055;-60
2023/07/15 07:20:24;;;;;;;7.67;3.47;;;;;;;;;;5082504;28;20072;-61
2023/07/15 07:22:49;;;;;;;8.17;4.10;;;;;;;;;;5088268;28;20019;-61
2023/07/15 07:25:15;;;;;;;9.37;4.30;;;;;;;;;;5089864;28;20328;-61
2023/07/15 07:27:40;;;;;;;6.73;3.63;;;;;;;;;;5083783;28;20050;-60
2023/07/15 07:30:06;;;;;;;8.67;4.53;;;;;;;;;;5093866;28;20023;-60
2023/07/15 07:32:31;;;;;;;6.57;4.38;;;;;;;;;;5078865;28;20267;-61
2023/07/15 07:34:59;;;;;;;9.00;4.67;;;;;;;;;;5095936;28;20455;-59
2023/07/15 07:37:25;;;;;;;7.65;4.28;;;;;;;;;;5085832;28;20258;-61
2023/07/15 07:39:51;;;;;;;7.57;4.70;;;;;;;;;;5091070;28;20073;-60
2023/07/15 07:42:19;;;;;;;8.35;4.63;;;;;;;;;;5090748;28;20012;-61
2023/07/15 07:44:44;;;;;;;8.43;4.68;;;;;;;;;;5084712;28;20027;-60
2023/07/15 07:47:10;;;;;;;6.90;4.07;;;;;;;;;;5092712;28;20027;-59
2023/07/15 07:49:35;;;;;;;7.43;4.43;;;;;;;;;;5085261;28;20036;-61
2023/07/15 07:52:00;;;;;;;6.60;3.70;;;;;;;;;;5092903;28;20781;-59
2023/07/15 07:54:25;;;;;;;7.55;4.00;;;;;;;;;;5085405;28;20256;-61
2023/07/15 07:56:53;;;;;;;7.40;4.27;;;;;;;;;;5084274;28;21060;-62
2023/07/15 07:59:21;;;;;;;6.00;3.65;;;;;;;;;;5094380;28;20268;-61
2023/07/15 08:01:48;;;;;;;6.47;3.85;;;;;;;;;;5085204;28;20106;-61
2023/07/15 08:04:16;;;;;;;6.90;3.63;;;;;;;;;;5086634;28;20089;-60
2023/07/15 08:06:41;;;;;;;8.15;3.80;;;;;;;;;;5080710;28;20027;-60
2023/07/15 08:09:09;;;;;;;7.03;3.90;;;;;;;;;;5083091;28;20059;-60
2023/07/15 08:11:34;;;;;;;6.25;3.72;;;;;;;;;;5090538;28;20363;-60
2023/07/15 08:14:00;;;;;;;7.47;3.80;;;;;;;;;;5082277;28;20082;-61
2023/07/15 08:16:31;;;;;;;6.67;3.90;;;;;;;;;;5095788;28;20281;-60
2023/07/15 08:18:56;;;;;;;8.38;4.20;;;;;;;;;;5080832;28;20055;-60
2023/07/15 08:21:22;;;;;;;8.43;4.07;;;;;;;;;;5092287;28;20015;-60
2023/07/15 08:23:49;;;;;;;8.50;4.10;;;;;;;;;;5083750;28;20990;-58
2023/07/15 08:26:14;;;;;;;6.63;3.75;;;;;;;;;;5084095;28;20560;-60
2023/07/15 08:28:40;;;;;;;7.73;3.90;;;;;;;;;;5087546;28;20019;-63
2023/07/15 08:31:05;;;;;;;7.82;4.28;;;;;;;;;;5086631;28;20262;-60
2023/07/15 08:33:30;;;;;;;7.40;3.72;;;;;;;;;;5086314;28;20016;-60
2023/07/15 08:35:56;;;;;;;5.60;3.65;;;;;;;;;;5084127;28;20072;-60
2023/07/15 08:38:25;;;;;;;10.80;3.67;;;;;;;;;;5091297;28;20042;-62
2023/07/15 08:40:53;;;;;;;8.90;4.20;;;;;;;;;;5087747;28;20099;-61
2023/07/15 08:43:18;;;;;;;10.50;3.77;;;;;;;;;;5081018;28;20031;-60
2023/07/15 08:45:45;;;;;;;6.57;3.47;;;;;;;;;;5088075;28;20012;-61
2023/07/15 08:48:12;;;;;;;6.90;3.47;;;;;;;;;;5091028;28;20097;-60
2023/07/15 08:50:40;;;;;;;7.28;3.95;;;;;;;;;;5083995;28;20020;-59
2023/07/15 08:53:05;;;;;;;6.88;3.58;;;;;;;;;;5090042;28;20023;-60
2023/07/15 08:55:31;;;;;;;5.73;3.10;;;;;;;;;;5092682;28;20016;-61
2023/07/15 08:57:57;;;;;;;6.05;3.72;;;;;;;;;;5092982;28;21160;-61
2023/07/15 09:00:23;;;;;;;9.52;3.67;;;;;;;;;;5090736;28;20116;-61
2023/07/15 09:02:52;;;;;;;7.05;3.60;;;;;;;;;;5083781;28;20142;-59
2023/07/15 09:05:18;;;;;;;8.48;4.00;;;;;;;;;;5098021;28;20034;-60
2023/07/15 09:07:51;;;;;;;8.98;3.90;;;;;;;;;;5091028;28;20019;-62
2023/07/15 09:10:19;;;;;;;5.97;3.58;;;;;;;;;;5094287;28;20148;-60
2023/07/15 09:12:51;;;;;;;6.60;3.72;;;;;;;;;;5091715;28;20019;-61
2023/07/15 09:15:16;;;;;;;8.27;4.35;;;;;;;;;;5089912;28;20131;-61
2023/07/15 09:17:49;;;;;;;9.05;3.50;;;;;;;;;;5089957;28;20087;-60
2023/07/15 09:20:21;;;;;;;8.20;3.55;;;;;;;;;;5084411;28;20020;-59
2023/07/15 09:23:04;;;;;;;6.20;3.75;;;;;;;;;;5091176;28;20024;-60
2023/07/15 09:25:30;;;;;;;5.63;3.95;;;;;;;;;;5086497;28;20012;-61
2023/07/15 09:27:55;;;;;;;7.87;4.07;;;;;;;;;;5089368;28;20096;-61
2023/07/15 09:30:20;;;;;;;6.77;3.60;;;;;;;;;;5087193;28;20264;-59
2023/07/15 09:32:46;;;;;;;7.70;3.50;;;;;;;;;;5090819;28;20458;-59
2023/07/15 09:35:11;;;;;;;7.35;3.75;;;;;;;;;;5089832;28;20016;-61
2023/07/15 09:37:40;;;;;;;7.82;3.53;;;;;;;;;;5087985;28;20019;-60
2023/07/15 09:40:08;;;;;;;;;;;;;;;;;;5088096;28;20027;-59
2023/07/15 09:42:59;;;;;;;9.95;3.75;;;;;;;;;;5089643;28;19907;-59
2023/07/15 09:45:34;;;;;;;8.10;3.75;;;;;;;;;;5072828;28;20098;-61
2023/07/15 09:48:00;;;;;;;7.68;3.72;;;;;;;;;;5082290;28;20062;-60
2023/07/15 09:50:27;;;;;;;8.20;3.58;;;;;;;;;;5084630;28;20565;-59
2023/07/15 09:52:54;;;;;;;8.30;4.25;;;;;;;;;;5095173;27;20531;-62
2023/07/15 09:55:20;;;;;;;8.15;4.00;;;;;;;;;;5087792;28;20034;-59
2023/07/15 09:57:46;;;;;;;8.10;4.18;;;;;;;;;;5085502;28;20089;-61
2023/07/15 10:00:15;;;;;;;8.20;4.22;;;;;;;;;;5096975;28;20461;-61
2023/07/15 10:02:42;;;;;;;8.95;4.35;;;;;;;;;;5084799;28;20030;-60
2023/07/15 10:05:13;;;;;;;8.68;4.20;;;;;;;;;;5087210;28;20024;-62
2023/07/15 10:07:40;;;;;;;7.45;4.20;;;;;;;;;;5089445;28;20012;-60
2023/07/15 10:10:07;;;;;;;9.73;4.63;;;;;;;;;;5088338;28;20179;-61
2023/07/15 10:12:35;;;;;;;7.25;4.40;;;;;;;;;;5089350;28;20187;-60
2023/07/15 10:15:03;;;;;;;7.82;4.00;;;;;;;;;;5080231;28;20181;-61
2023/07/15 10:17:38;;;;;;;8.52;4.40;;;;;;;;;;5092375;28;20795;-61
2023/07/15 10:20:10;;;;;;;7.28;4.68;;;;;;;;;;5087637;28;20012;-61
2023/07/15 10:22:36;;;;;;;8.23;4.65;;;;;;;;;;5092092;28;20028;-61
2023/07/15 10:25:02;;;;;;;9.10;5.20;;;;;;;;;;5084693;28;20030;-60
2023/07/15 10:27:28;;;;;;;10.45;5.07;;;;;;;;;;5087601;28;20206;-60
2023/07/15 10:30:12;;;;;;;9.45;5.07;;;;;;;;;;5095038;28;20111;-60
2023/07/15 10:32:37;;;;;;;9.38;4.93;;;;;;;;;;5091664;28;20011;-61
2023/07/15 10:35:03;;;;;;;7.57;4.57;;;;;;;;;;5096207;28;20159;-60
2023/07/15 10:37:32;;;;;;;8.55;4.60;;;;;;;;;;5087366;28;20246;-61
2023/07/15 10:39:58;;;;;;;9.95;5.18;;;;;;;;;;5091731;28;20475;-61
2023/07/15 10:42:24;;;;;;;10.30;4.73;;;;;;;;;;5089810;28;20023;-59
2023/07/15 10:44:58;;;;;;;7.78;4.40;;;;;;;;;;5082495;28;20024;-62
2023/07/15 10:47:23;;;;;;;9.35;5.20;;;;;;;;;;5089389;28;20016;-59
2023/07/15 10:49:51;;;;;;;10.90;5.30;;;;;;;;;;5086383;28;20397;-61
2023/07/15 10:52:18;;;;;;;8.43;5.32;;;;;;;;;;5095245;28;20027;-61
2023/07/15 10:54:44;;;;;;;8.70;5.20;;;;;;;;;;5086007;28;20040;-61
2023/07/15 10:57:12;;;;;;;9.05;5.18;;;;;;;;;;5082131;28;20170;-62
2023/07/15 10:59:39;;;;;;;8.80;5.28;;;;;;;;;;5091143;28;20027;-61
2023/07/15 11:02:04;;;;;;;9.75;5.15;;;;;;;;;;5083550;28;20846;-58
2023/07/15 11:04:30;;;;;;;10.60;4.95;;;;;;;;;;5095127;28;20016;-60
2023/07/15 11:07:06;;;;;;;7.10;4.78;;;;;;;;;;5088075;27;20055;-60
2023/07/15 11:09:31;;;;;;;11.85;5.63;;;;;;;;;;5088291;28;20023;-62
2023/07/15 11:12:00;;;;;;;9.30;4.53;;;;;;;;;;5087533;28;20020;-62
2023/07/15 11:14:25;;;;;;;9.63;5.10;;;;;;;;;;5085632;28;20015;-60
2023/07/15 11:16:54;;;;;;;8.00;4.80;;;;;;;;;;5093982;28;20031;-60
2023/07/15 11:19:20;;;;;;;;;;;;;;;;;;5089324;28;20277;-60
2023/07/15 11:21:45;;;;;;;11.60;4.80;;;;;;;;;;5093440;28;20022;-60
2023/07/15 11:24:16;;;;;;;8.73;5.00;;;;;;;;;;5090519;28;20077;-62
2023/07/15 11:26:41;;;;;;;9.32;5.07;;;;;;;;;;5095466;28;20020;-61
2023/07/15 11:29:17;;;;;;;11.80;5.32;;;;;;;;;;5089202;28;20100;-60
2023/07/15 11:31:46;;;;;;;8.30;5.10;;;;;;;;;;5090463;28;20015;-59
2023/07/15 11:34:14;;;;;;;10.35;5.20;;;;;;;;;;5084421;28;20019;-58
2023/07/15 11:36:41;;;;;;;7.45;4.40;;;;;;;;;;5089218;28;20120;-59
2023/07/15 11:39:07;;;;;;;8.43;4.93;;;;;;;;;;5090823;27;20711;-60
2023/07/15 11:41:38;;;;;;;7.82;4.55;;;;;;;;;;5085630;28;20059;-60
2023/07/15 11:44:11;;;;;;;8.15;4.55;;;;;;;;;;5085072;28;20467;-58
2023/07/15 11:46:40;;;;;;;7.57;4.63;;;;;;;;;;5085493;28;20027;-59
2023/07/15 11:49:05;;;;;;;9.77;4.70;;;;;;;;;;5084433;28;20024;-59
2023/07/15 11:51:34;;;;;;;9.90;4.78;;;;;;;;;;5086526;28;20020;-59
2023/07/15 11:54:00;;;;;;;9.73;4.60;;;;;;;;;;5089758;28;20027;-58
2023/07/15 11:56:38;;;;;;;10.60;4.43;;;;;;;;;;5084995;28;20020;-59
2023/07/15 11:59:11;;;;;;;9.95;4.20;;;;;;;;;;5091284;28;20057;-57
2023/07/15 12:01:56;;;;;;;9.48;4.22;;;;;;;;;;5085564;28;20015;-58
2023/07/15 12:04:21;;;;;;;6.63;4.30;;;;;;;;;;5085126;28;20024;-59
2023/07/15 12:06:48;;;;;;;9.55;4.00;;;;;;;;;;5086711;28;20790;-59
2023/07/15 12:09:19;;;;;;;9.38;4.22;;;;;;;;;;5083864;28;20442;-58
2023/07/15 12:11:47;;;;;;;7.53;4.20;;;;;;;;;;5091647;28;20572;-59
2023/07/15 12:14:16;;;;;;;7.47;3.67;;;;;;;;;;5084759;28;20016;-58
2023/07/15 12:16:42;;;;;;;10.17;4.10;;;;;;;;;;5095472;28;20102;-58
2023/07/15 12:19:13;;;;;;;9.00;3.95;;;;;;;;;;5088207;28;20051;-58
2023/07/15 12:21:41;;;;;;;8.27;3.97;;;;;;;;;;5089966;28;20016;-58
2023/07/15 12:24:07;;;;;;;7.95;3.67;;;;;;;;;;5094819;28;20039;-58
2023/07/15 12:26:32;;;;;;;7.63;4.03;;;;;;;;;;5088320;28;20152;-57
2023/07/15 12:28:57;;;;;;;7.57;3.80;;;;;;;;;;5090772;28;20027;-59
2023/07/15 12:31:23;;;;;;;10.43;4.60;;;;;;;;;;5086085;28;20023;-59
2023/07/15 12:33:48;;;;;;;8.10;4.30;;;;;;;;;;5099377;27;20043;-59
2023/07/15 12:36:17;;;;;;;7.75;4.07;;;;;;;;;;5091242;28;20024;-59
2023/07/15 12:38:42;;;;;;;7.65;4.50;;;;;;;;;;5096004;28;20468;-59
2023/07/15 12:41:08;;;;;;;9.55;4.40;;;;;;;;;;5093249;27;20018;-59
2023/07/15 12:43:36;;;;;;;9.43;4.50;;;;;;;;;;5086837;28;20561;-59
2023/07/15 12:46:02;;;;;;;7.85;4.68;;;;;;;;;;5091507;28;20088;-58
2023/07/15 12:48:27;;;;;;;10.70;4.80;;;;;;;;;;5087799;28;20023;-60
2023/07/15 12:50:55;;;;;;;9.15;4.38;;;;;;;;;;5095510;28;20025;-61
2023/07/15 12:53:21;;;;;;;6.93;4.25;;;;;;;;;;5090102;28;20031;-60
2023/07/15 12:55:49;;;;;;;10.40;4.60;;;;;;;;;;5087490;28;20149;-60
2023/07/15 12:58:14;;;;;;;8.18;4.35;;;;;;;;;;5106028;27;20026;-58
2023/07/15 13:00:40;;;;;;;7.97;4.43;;;;;;;;;;5090802;28;20020;-60
2023/07/15 13:03:07;;;;;;;10.10;4.82;;;;;;;;;;5088968;28;20383;-59
2023/07/15 13:05:38;;;;;;;9.63;5.10;;;;;;;;;;5090169;28;20520;-60
2023/07/15 13:08:04;;;;;;;11.05;4.88;;;;;;;;;;5093540;28;20028;-59
2023/07/15 13:10:31;;;;;;;9.90;4.65;;;;;;;;;;5083925;28;20051;-58
2023/07/15 13:12:57;;;;;;;7.90;4.55;;;;;;;;;;5088593;28;20020;-60
2023/07/15 13:15:22;;;;;;;9.05;4.43;;;;;;;;;;5083385;28;20457;-59
2023/07/15 13:17:48;;;;;;;9.43;4.47;;;;;;;;;;5092314;28;20071;-60
2023/07/15 13:20:13;;;;;;;8.17;4.53;;;;;;;;;;5085115;28;20019;-58
2023/07/15 13:22:39;;;;;;;8.02;4.75;;;;;;;;;;5091344;28;20245;-60
2023/07/15 13:25:05;;;;;;;7.65;4.68;;;;;;;;;;5088571;28;20385;-59
2023/07/15 13:27:31;;;;;;;11.00;4.93;;;;;;;;;;5094484;28;20020;-59
2023/07/15 13:29:59;;;;;;;8.88;5.30;;;;;;;;;;5084620;28;20028;-60
2023/07/15 13:32:24;;;;;;;12.38;5.00;;;;;;;;;;5082189;28;20023;-59
2023/07/15 13:34:49;;;;;;;9.77;4.80;;;;;;;;;;5091446;28;20048;-59
2023/07/15 13:37:14;;;;;;;10.93;5.07;;;;;;;;;;5082549;28;20020;-59
2023/07/15 13:39:42;;;;;;;9.23;5.23;;;;;;;;;;5094600;28;20289;-59
2023/07/15 13:42:09;;;;;;;8.63;4.78;;;;;;;;;;5087302;28;20055;-59
2023/07/15 13:44:34;;;;;;;8.25;4.93;;;;;;;;;;5092971;28;20039;-58
2023/07/15 13:47:02;;;;;;;9.03;5.37;;;;;;;;;;5084815;28;20463;-60
2023/07/15 13:49:28;;;;;;;9.50;4.68;;;;;;;;;;5098693;28;20055;-59
2023/07/15 13:51:56;;;;;;;9.43;5.13;;;;;;;;;;5091471;28;20143;-60
2023/07/15 13:54:22;;;;;;;10.75;4.63;;;;;;;;;;5095415;28;20015;-60
2023/07/15 13:56:49;;;;;;;11.38;5.20;;;;;;;;;;5097996;28;20081;-60
2023/07/15 13:59:15;;;;;;;8.50;5.35;;;;;;;;;;5101657;28;20030;-60
2023/07/15 14:01:41;;;;;;;9.30;4.82;;;;;;;;;;5096478;28;20899;-60
2023/07/15 14:04:06;;;;;;;9.48;4.85;;;;;;;;;;5085996;28;20047;-59
2023/07/15 14:06:34;;;;;;;10.43;5.50;;;;;;;;;;5092655;28;20102;-61
2023/07/15 14:09:02;;;;;;;9.27;5.35;;;;;;;;;;5085187;28;20053;-59
2023/07/15 14:11:27;;;;;;;10.30;5.25;;;;;;;;;;5094824;28;20047;-58
2023/07/15 14:13:57;;;;;;;11.38;5.72;;;;;;;;;;5082862;28;20044;-59
2023/07/15 14:16:22;;;;;;;8.32;5.05;;;;;;;;;;5093590;28;20019;-62
2023/07/15 14:18:47;;;;;;;9.63;5.45;;;;;;;;;;5087233;28;20075;-59
2023/07/15 14:21:13;;;;;;;9.73;5.27;;;;;;;;;;5075805;28;20055;-59
2023/07/15 14:23:38;;;;;;;10.03;5.30;;;;;;;;;;5091922;28;20037;-61
2023/07/15 14:26:03;;;;;;;10.33;5.20;;;;;;;;;;5082960;28;20249;-59
2023/07/15 14:28:29;;;;;;;8.37;5.37;;;;;;;;;;5088883;28;20015;-60
2023/07/15 14:30:54;;;;;;;7.40;5.13;;;;;;;;;;5084575;28;20262;-59
2023/07/15 14:33:22;;;;;;;10.25;5.30;;;;;;;;;;5096170;28;20023;-62
2023/07/15 14:35:49;;;;;;;10.65;5.63;;;;;;;;;;5083606;28;20035;-61
2023/07/15 14:38:15;;;;;;;8.10;5.20;;;;;;;;;;5093808;28;20019;-58
2023/07/15 14:40:42;;;;;;;8.20;5.40;;;;;;;;;;5068671;28;20047;-59